Time;durP1;ratioP1;P1;durP2;ratioP2;P2;SDS_P1;SDS_P2;PMS_P1;PMS_P2;Temp;Humidity;BMP_temperature;BMP_pressure;BME280_temperature;BME280_humidity;BME280_pressure;Samples;Min_cycle;Max_cycle;Signal;HPM_P1;HPM_P2
2021/05/09 00:01:34;;;;;;;3.83;3.30;;;13.30;99.90;;;;;;5003316;28;20446;-79
2021/05/09 00:04:01;;;;;;;6.67;4.20;;;13.10;99.90;;;;;;4998869;28;20573;-80
2021/05/09 00:06:29;;;;;;;4.93;3.97;;;13.00;99.90;;;;;;4993605;28;20456;-79
2021/05/09 00:08:56;;;;;;;5.90;3.90;;;12.90;99.90;;;;;;5009100;28;20461;-77
2021/05/09 00:11:23;;;;;;;4.53;3.20;;;12.70;99.90;;;;;;5020274;28;20446;-81
2021/05/09 00:13:52;;;;;;;3.93;3.23;;;12.70;99.90;;;;;;4995412;28;20461;-82
2021/05/09 00:16:19;;;;;;;5.40;4.37;;;12.60;99.90;;;;;;5016157;28;20469;-79
2021/05/09 00:18:45;;;;;;;5.23;3.83;;;12.40;99.90;;;;;;5008957;28;20465;-81
2021/05/09 00:21:12;;;;;;;4.40;4.00;;;12.30;99.90;;;;;;4981558;28;20450;-79
2021/05/09 00:23:40;;;;;;;4.70;4.23;;;12.30;99.90;;;;;;4994237;28;20983;-83
2021/05/09 00:26:06;;;;;;;5.63;4.13;;;12.30;99.90;;;;;;4995546;28;20461;-80
2021/05/09 00:28:34;;;;;;;5.87;4.57;;;12.20;99.90;;;;;;4994165;28;20470;-79
2021/05/09 00:31:00;;;;;;;6.33;3.43;;;12.20;99.90;;;;;;5024950;28;20441;-79
2021/05/09 00:33:27;;;;;;;5.30;4.27;;;12.10;99.90;;;;;;5001560;28;20500;-78
2021/05/09 00:35:54;;;;;;;5.17;4.67;;;12.10;99.90;;;;;;5004426;28;20497;-83
2021/05/09 00:38:21;;;;;;;6.27;4.20;;;12.10;99.90;;;;;;5003114;28;20457;-81
2021/05/09 00:40:47;;;;;;;6.70;4.80;;;12.10;99.90;;;;;;5011544;28;20451;-78
2021/05/09 00:43:17;;;;;;;4.33;3.93;;;12.00;99.90;;;;;;5012546;28;20468;-80
2021/05/09 00:45:44;;;;;;;4.23;3.83;;;12.00;99.90;;;;;;4994642;28;20430;-81
2021/05/09 00:48:15;;;;;;;5.00;4.50;;;11.90;99.90;;;;;;5010392;28;20484;-79
2021/05/09 00:50:42;;;;;;;4.80;3.80;;;11.80;99.90;;;;;;4993884;28;20447;-84
2021/05/09 00:53:10;;;;;;;5.00;4.10;;;11.80;99.90;;;;;;5009015;28;20468;-82
2021/05/09 00:55:38;;;;;;;4.87;4.47;;;11.80;99.90;;;;;;5002179;28;20866;-80
2021/05/09 00:58:15;;;;;;;6.40;4.50;;;11.70;99.90;;;;;;5023026;28;20457;-81
2021/05/09 01:00:42;;;;;;;6.40;3.97;;;11.60;99.90;;;;;;4997275;28;20432;-79
2021/05/09 01:03:12;;;;;;;5.23;3.87;;;11.50;99.90;;;;;;5000214;28;20465;-79
2021/05/09 01:05:39;;;;;;;4.13;3.53;;;11.40;99.90;;;;;;5008998;28;20683;-79
2021/05/09 01:08:06;;;;;;;6.47;4.30;;;11.30;99.90;;;;;;4993174;28;20864;-82
2021/05/09 01:10:33;;;;;;;4.17;3.70;;;11.20;99.90;;;;;;5004199;28;20186;-79
2021/05/09 01:13:00;;;;;;;6.77;3.77;;;11.20;99.90;;;;;;5008191;28;20461;-82
2021/05/09 01:15:29;;;;;;;5.13;3.83;;;11.10;99.90;;;;;;5000905;28;20469;-81
2021/05/09 01:17:56;;;;;;;4.57;4.10;;;11.00;99.90;;;;;;5015428;28;20457;-83
2021/05/09 01:20:23;;;;;;;3.87;3.57;;;11.00;99.90;;;;;;4992855;28;20883;-81
2021/05/09 01:22:53;;;;;;;4.60;3.63;;;10.90;99.90;;;;;;5009121;28;20429;-82
2021/05/09 01:25:20;;;;;;;4.80;4.07;;;10.80;99.90;;;;;;5012085;28;20429;-82
2021/05/09 01:27:48;;;;;;;4.30;3.92;;;10.80;99.90;;;;;;4995536;28;20456;-85
2021/05/09 01:30:17;;;;;;;7.60;4.15;;;10.80;99.90;;;;;;4991684;28;20189;-82
2021/05/09 01:32:44;;;;;;;3.65;3.35;;;10.80;99.90;;;;;;4995520;28;20213;-78
2021/05/09 01:35:12;;;;;;;5.07;4.00;;;10.70;99.90;;;;;;5005740;28;20648;-82
2021/05/09 01:37:40;;;;;;;4.40;3.88;;;10.70;99.90;;;;;;5009573;28;20212;-79
2021/05/09 01:40:08;;;;;;;4.50;4.20;;;10.70;99.90;;;;;;5010702;28;20191;-83
2021/05/09 01:42:37;;;;;;;4.03;3.63;;;10.70;99.90;;;;;;4993876;28;20292;-81
2021/05/09 01:45:05;;;;;;;4.38;3.97;;;10.70;99.90;;;;;;4991377;28;20203;-80
2021/05/09 01:47:32;;;;;;;4.82;3.70;;;10.60;99.90;;;;;;5007387;28;20238;-81
2021/05/09 01:50:01;;;;;;;5.43;4.30;;;10.60;99.90;;;;;;5022259;28;20203;-80
2021/05/09 01:52:28;;;;;;;7.10;4.68;;;10.60;99.90;;;;;;4992041;28;20207;-79
2021/05/09 01:54:59;;;;;;;4.88;3.80;;;10.60;99.90;;;;;;4994758;28;20215;-79
2021/05/09 01:57:26;;;;;;;4.18;3.70;;;10.60;99.90;;;;;;4996250;28;20692;-79
2021/05/09 01:59:58;;;;;;;6.13;5.53;;;10.60;99.90;;;;;;5009104;28;20214;-82
2021/05/09 02:02:33;;;;;;;6.40;4.28;;;10.60;99.90;;;;;;5010702;28;20202;-81
2021/05/09 02:05:06;;;;;;;6.30;3.40;;;10.50;99.90;;;;;;5009883;28;20703;-80
2021/05/09 02:07:33;;;;;;;5.90;4.40;;;10.50;99.90;;;;;;5010966;28;20236;-79
2021/05/09 02:10:00;;;;;;;6.90;3.92;;;10.50;99.90;;;;;;4995313;28;20233;-80
2021/05/09 02:12:27;;;;;;;7.50;4.80;;;10.50;99.90;;;;;;4991489;28;20656;-81
2021/05/09 02:15:09;;;;;;;4.80;4.28;;;10.50;99.90;;;;;;5025596;28;20237;-79
2021/05/09 02:17:36;;;;;;;4.35;3.90;;;10.50;99.90;;;;;;5005015;28;20708;-78
2021/05/09 02:20:11;;;;;;;7.40;4.13;;;10.40;99.90;;;;;;5010826;28;20188;-77
2021/05/09 02:22:39;;;;;;;4.80;4.30;;;10.40;99.90;;;;;;5009608;28;20656;-79
2021/05/09 02:25:07;;;;;;;4.88;4.43;;;10.30;99.90;;;;;;4997766;28;20202;-78
2021/05/09 02:27:34;;;;;;;4.10;3.80;;;10.30;99.90;;;;;;5007415;28;20205;-81
2021/05/09 02:30:04;;;;;;;7.85;5.22;;;10.30;99.90;;;;;;5006728;28;20209;-79
2021/05/09 02:32:30;;;;;;;8.05;4.35;;;10.30;99.90;;;;;;4993978;28;20238;-80
2021/05/09 02:34:59;;;;;;;4.88;3.85;;;10.30;99.90;;;;;;4995898;28;20219;-81
2021/05/09 02:37:26;;;;;;;5.00;4.50;;;10.30;99.90;;;;;;5008701;28;20289;-77
2021/05/09 02:39:53;;;;;;;4.70;4.10;;;10.40;99.90;;;;;;4995386;28;20219;-77
2021/05/09 02:42:19;;;;;;;4.75;4.20;;;10.40;99.90;;;;;;5017968;28;20241;-79
2021/05/09 02:44:47;;;;;;;4.00;3.53;;;10.40;99.90;;;;;;4990529;28;20229;-82
2021/05/09 02:47:28;;;;;;;5.60;4.40;;;10.40;99.90;;;;;;5007639;28;20640;-79
2021/05/09 02:50:00;;;;;;;4.30;3.90;;;10.40;99.90;;;;;;5019343;28;20219;-81
2021/05/09 02:52:29;;;;;;;5.68;5.07;;;10.40;99.90;;;;;;5002713;28;20560;-78
2021/05/09 02:54:57;;;;;;;4.10;3.70;;;10.40;99.90;;;;;;5009883;28;20221;-78
2021/05/09 02:57:24;;;;;;;5.25;4.85;;;10.30;99.90;;;;;;5010946;28;20829;-79
2021/05/09 02:59:51;;;;;;;5.68;4.28;;;10.30;99.90;;;;;;4994520;28;20226;-84
2021/05/09 03:02:18;;;;;;;5.25;4.10;;;10.30;99.90;;;;;;5023703;28;20248;-79
2021/05/09 03:04:45;;;;;;;4.78;4.38;;;10.30;99.90;;;;;;5003200;28;20244;-77
2021/05/09 03:07:12;;;;;;;5.88;4.40;;;10.30;99.90;;;;;;4978707;28;20701;-82
2021/05/09 03:09:39;;;;;;;4.75;4.30;;;10.20;99.90;;;;;;5003970;28;20672;-79
2021/05/09 03:12:09;;;;;;;5.82;5.20;;;10.10;99.90;;;;;;5009878;28;20233;-77
2021/05/09 03:14:35;;;;;;;5.13;4.63;;;10.00;99.90;;;;;;5005620;28;20242;-80
2021/05/09 03:17:02;;;;;;;5.45;4.95;;;9.90;99.90;;;;;;5002551;28;20238;-79
2021/05/09 03:19:29;;;;;;;5.97;5.45;;;9.80;99.90;;;;;;5005944;28;20217;-79
2021/05/09 03:21:55;;;;;;;4.72;4.32;;;9.80;99.90;;;;;;5015117;28;20193;-78
2021/05/09 03:24:21;;;;;;;4.85;4.30;;;9.80;99.90;;;;;;5014323;28;20623;-80
2021/05/09 03:26:48;;;;;;;5.60;5.10;;;9.80;99.90;;;;;;5005801;28;20249;-80
2021/05/09 03:29:14;;;;;;;4.97;4.30;;;9.80;99.90;;;;;;5005781;28;20241;-80
2021/05/09 03:31:41;;;;;;;5.40;4.47;;;9.80;99.90;;;;;;5013982;28;20186;-79
2021/05/09 03:34:08;;;;;;;4.72;4.30;;;9.80;99.90;;;;;;5017385;28;20306;-78
2021/05/09 03:36:37;;;;;;;5.03;4.10;;;9.80;99.90;;;;;;5030244;28;20220;-79
2021/05/09 03:39:04;;;;;;;6.53;4.68;;;9.80;99.90;;;;;;5004330;28;20222;-80
2021/05/09 03:41:31;;;;;;;5.75;4.95;;;9.70;99.90;;;;;;4998060;28;20194;-78
2021/05/09 03:43:58;;;;;;;4.72;4.40;;;9.70;99.90;;;;;;5006509;28;20709;-81
2021/05/09 03:46:25;;;;;;;7.40;5.25;;;9.70;99.90;;;;;;4997769;28;20728;-79
2021/05/09 03:48:54;;;;;;;5.15;4.75;;;9.70;99.90;;;;;;5005952;28;20220;-79
2021/05/09 03:51:26;;;;;;;5.63;4.88;;;9.70;99.90;;;;;;4994224;28;20676;-80
2021/05/09 03:53:56;;;;;;;4.15;3.83;;;9.70;99.90;;;;;;4994777;28;20222;-78
2021/05/09 03:56:23;;;;;;;4.70;4.30;;;9.70;99.90;;;;;;5012659;28;20269;-78
2021/05/09 03:58:50;;;;;;;6.15;4.47;;;9.70;99.90;;;;;;5013766;28;20280;-78
2021/05/09 04:01:22;;;;;;;4.80;4.30;;;9.80;99.90;;;;;;5005044;28;20186;-79
2021/05/09 04:03:49;;;;;;;4.70;4.30;;;9.80;99.90;;;;;;5010258;28;20226;-78
2021/05/09 04:06:16;;;;;;;4.55;4.15;;;9.80;99.90;;;;;;5011494;28;20214;-78
2021/05/09 04:08:48;;;;;;;5.45;4.50;;;9.80;99.90;;;;;;5007444;28;20222;-79
2021/05/09 04:11:19;;;;;;;6.63;4.50;;;9.80;99.90;;;;;;5014019;28;20235;-77
2021/05/09 04:13:48;;;;;;;5.50;3.63;;;9.80;99.90;;;;;;5009002;28;20290;-79
2021/05/09 04:16:17;;;;;;;5.05;4.28;;;9.80;99.90;;;;;;4996924;28;20623;-78
2021/05/09 04:18:50;;;;;;;3.75;3.35;;;9.80;99.90;;;;;;5018333;28;20217;-80
2021/05/09 04:21:27;;;;;;;5.05;4.05;;;9.80;99.90;;;;;;5013142;28;20199;-78
2021/05/09 04:23:53;;;;;;;5.93;4.60;;;9.80;99.90;;;;;;5013684;28;20213;-79
2021/05/09 04:26:20;;;;;;;4.85;4.45;;;9.80;99.90;;;;;;5013061;28;20212;-80
2021/05/09 04:28:47;;;;;;;4.85;4.10;;;9.80;99.90;;;;;;4990358;28;20225;-79
2021/05/09 04:31:14;;;;;;;4.78;4.38;;;9.80;99.90;;;;;;5009826;28;20194;-80
2021/05/09 04:33:40;;;;;;;5.65;5.15;;;9.80;99.90;;;;;;4976262;28;20222;-78
2021/05/09 04:36:09;;;;;;;4.85;3.45;;;9.80;99.90;;;;;;5014764;28;20771;-80
2021/05/09 04:38:42;;;;;;;5.93;4.40;;;9.80;99.90;;;;;;4995189;28;20222;-78
2021/05/09 04:41:12;;;;;;;4.82;4.38;;;9.90;99.90;;;;;;4977044;28;20245;-81
2021/05/09 04:43:42;;;;;;;4.50;3.97;;;9.90;99.90;;;;;;4993073;28;20222;-80
2021/05/09 04:46:09;;;;;;;5.07;3.78;;;9.90;99.90;;;;;;4998480;28;20676;-82
2021/05/09 04:48:38;;;;;;;3.70;3.40;;;10.00;99.90;;;;;;4996136;28;20225;-80
2021/05/09 04:51:05;;;;;;;5.15;3.75;;;10.00;99.90;;;;;;5005530;28;20209;-78
2021/05/09 04:53:34;;;;;;;3.70;3.33;;;10.10;99.90;;;;;;5027722;28;20301;-78
2021/05/09 04:56:06;;;;;;;4.45;3.40;;;10.10;99.90;;;;;;5009389;28;20214;-82
2021/05/09 04:58:37;;;;;;;4.45;3.30;;;10.20;99.90;;;;;;5009851;28;20221;-81
2021/05/09 05:01:05;;;;;;;4.22;3.00;;;10.30;99.90;;;;;;5000536;28;20225;-79
2021/05/09 05:03:32;;;;;;;4.20;2.88;;;10.40;99.90;;;;;;5012621;28;20230;-80
2021/05/09 05:06:00;;;;;;;6.15;3.05;;;10.50;99.90;;;;;;5013136;28;20207;-80
2021/05/09 05:08:33;;;;;;;3.80;2.45;;;10.70;99.90;;;;;;5010483;28;20655;-78
2021/05/09 05:11:01;;;;;;;5.40;2.97;;;10.90;99.90;;;;;;5010393;28;20641;-79
2021/05/09 05:13:33;;;;;;;2.95;2.53;;;11.00;99.90;;;;;;4996289;28;20226;-79
2021/05/09 05:16:01;;;;;;;2.75;2.55;;;11.20;99.90;;;;;;4997886;28;20678;-81
2021/05/09 05:18:28;;;;;;;2.83;2.63;;;11.30;99.90;;;;;;4993682;28;20251;-81
2021/05/09 05:21:01;;;;;;;5.83;3.50;;;11.50;99.90;;;;;;5015410;28;20233;-81
2021/05/09 05:23:29;;;;;;;5.57;3.37;;;11.60;99.90;;;;;;5011008;28;20550;-83
2021/05/09 05:25:57;;;;;;;5.43;3.30;;;11.70;99.90;;;;;;5010093;28;20467;-79
2021/05/09 05:28:26;;;;;;;4.60;2.90;;;11.80;99.90;;;;;;5009212;28;20533;-79
2021/05/09 05:31:03;;;;;;;3.50;3.20;;;11.90;99.90;;;;;;4993425;28;20406;-80
2021/05/09 05:33:32;;;;;;;6.10;2.80;;;11.90;99.90;;;;;;4992660;28;20241;-79
2021/05/09 05:36:01;;;;;;;4.13;3.40;;;11.90;99.90;;;;;;5006923;28;20469;-84
2021/05/09 05:38:30;;;;;;;3.43;3.00;;;12.10;99.90;;;;;;5010491;28;20472;-80
2021/05/09 05:40:58;;;;;;;3.40;3.10;;;12.20;99.90;;;;;;4993632;28;20449;-81
2021/05/09 05:43:27;;;;;;;4.63;3.10;;;12.40;99.90;;;;;;5013558;28;20479;-81
2021/05/09 05:45:56;;;;;;;4.00;3.23;;;12.70;99.90;;;;;;4992326;28;20449;-80
2021/05/09 05:48:26;;;;;;;3.60;3.23;;;12.80;99.90;;;;;;5010334;28;20464;-81
2021/05/09 05:50:59;;;;;;;3.40;3.00;;;13.10;99.90;;;;;;5005479;28;20448;-81
2021/05/09 05:53:29;;;;;;;4.50;3.40;;;13.40;99.90;;;;;;4988832;28;20477;-77
2021/05/09 05:55:59;;;;;;;3.90;3.37;;;13.80;99.90;;;;;;5000936;28;20509;-79
2021/05/09 05:58:26;;;;;;;5.33;4.20;;;14.20;99.90;;;;;;5011500;28;20474;-76
2021/05/09 06:00:53;;;;;;;5.77;4.10;;;14.40;99.90;;;;;;5004672;28;20533;-79
2021/05/09 06:03:23;;;;;;;4.07;3.67;;;14.70;99.90;;;;;;4999623;28;20453;-80
2021/05/09 06:05:53;;;;;;;4.20;3.40;;;14.90;99.90;;;;;;5006925;28;20960;-78
2021/05/09 06:08:20;;;;;;;4.93;3.50;;;15.20;99.90;;;;;;5009452;28;20554;-80
2021/05/09 06:10:47;;;;;;;4.80;3.80;;;15.40;99.90;;;;;;5011082;28;20799;-80
2021/05/09 06:13:14;;;;;;;2.97;2.77;;;15.50;99.90;;;;;;5005912;28;20465;-80
2021/05/09 06:15:41;;;;;;;5.03;3.53;;;15.70;99.90;;;;;;5025565;28;20946;-78
2021/05/09 06:18:10;;;;;;;4.50;4.10;;;15.80;99.90;;;;;;4991928;28;20979;-79
2021/05/09 06:20:37;;;;;;;5.57;4.40;;;16.10;99.90;;;;;;4991823;28;20467;-81
2021/05/09 06:23:08;;;;;;;4.60;3.30;;;16.10;99.90;;;;;;5007377;28;20462;-76
2021/05/09 06:25:35;;;;;;;4.07;3.67;;;16.30;99.90;;;;;;5015925;28;20438;-78
2021/05/09 06:28:07;;;;;;;3.73;3.07;;;16.50;99.90;;;;;;5023353;28;20469;-78
2021/05/09 06:30:41;;;;;;;4.13;3.20;;;16.60;99.90;;;;;;5026012;28;20527;-81
2021/05/09 06:33:08;;;;;;;5.53;3.40;;;16.80;99.90;;;;;;4994138;28;20480;-81
2021/05/09 06:35:38;;;;;;;4.00;3.40;;;17.00;99.90;;;;;;5009973;28;20511;-78
2021/05/09 06:38:09;;;;;;;3.77;3.00;;;17.00;99.90;;;;;;4994465;28;21094;-81
2021/05/09 06:40:45;;;;;;;4.57;2.90;;;17.00;99.90;;;;;;5020577;28;20499;-76
2021/05/09 06:43:19;;;;;;;7.00;2.97;;;17.20;99.90;;;;;;5004580;28;20468;-78
2021/05/09 06:45:47;;;;;;;3.50;3.20;;;17.30;99.90;;;;;;5013728;28;20456;-80
2021/05/09 06:48:17;;;;;;;5.87;3.30;;;17.50;99.90;;;;;;4993379;28;20548;-79
2021/05/09 06:50:44;;;;;;;3.73;3.37;;;17.60;99.90;;;;;;5002155;28;20446;-80
2021/05/09 06:53:10;;;;;;;3.47;3.17;;;17.60;99.90;;;;;;4999884;28;20496;-80
2021/05/09 06:55:39;;;;;;;2.80;2.60;;;17.60;99.90;;;;;;5010374;28;20805;-78
2021/05/09 06:58:09;;;;;;;3.10;2.70;;;17.80;99.90;;;;;;5025963;28;20453;-82
2021/05/09 07:00:36;;;;;;;3.10;2.80;;;17.80;99.90;;;;;;5019804;28;20426;-79
2021/05/09 07:03:10;;;;;;;3.30;3.00;;;17.90;99.90;;;;;;5020124;28;20457;-76
2021/05/09 07:05:41;;;;;;;6.53;2.97;;;17.90;99.90;;;;;;5008616;28;20440;-80
2021/05/09 07:08:07;;;;;;;4.27;3.60;;;18.00;99.90;;;;;;5016738;28;20457;-79
2021/05/09 07:10:37;;;;;;;2.67;2.47;;;18.00;99.90;;;;;;4988443;28;20863;-82
2021/05/09 07:13:11;;;;;;;3.10;2.90;;;18.10;99.90;;;;;;4998496;28;20475;-78
2021/05/09 07:15:40;;;;;;;2.60;2.40;;;18.10;99.90;;;;;;5009439;28;20464;-82
2021/05/09 07:18:11;;;;;;;4.20;2.97;;;18.20;99.90;;;;;;5014447;28;20503;-83
2021/05/09 07:20:44;;;;;;;3.10;2.80;;;18.20;99.90;;;;;;5014043;28;20460;-80
2021/05/09 07:23:15;;;;;;;2.80;2.60;;;18.30;99.90;;;;;;5001687;28;20465;-78
2021/05/09 07:25:43;;;;;;;3.30;3.00;;;18.50;99.90;;;;;;4994322;28;20943;-82
2021/05/09 07:28:11;;;;;;;2.90;2.70;;;18.60;99.90;;;;;;4999399;28;20473;-81
2021/05/09 07:30:39;;;;;;;2.93;2.63;;;18.60;99.90;;;;;;5015091;28;20800;-81
2021/05/09 07:33:10;;;;;;;3.90;2.90;;;18.60;99.90;;;;;;4997302;28;20473;-79
2021/05/09 07:35:36;;;;;;;3.90;2.80;;;18.70;99.90;;;;;;5026907;28;20476;-82
2021/05/09 07:38:12;;;;;;;4.07;2.77;;;18.80;99.90;;;;;;5001567;28;20514;-80
2021/05/09 07:40:42;;;;;;;3.53;2.53;;;18.70;99.90;;;;;;5007345;28;20965;-82
2021/05/09 07:43:13;;;;;;;2.90;2.57;;;18.80;99.90;;;;;;5008068;28;20453;-84
2021/05/09 07:45:41;;;;;;;5.20;3.17;;;18.80;99.90;;;;;;5020823;28;20446;-81
2021/05/09 07:48:10;;;;;;;4.10;2.80;;;18.90;99.90;;;;;;5026307;28;20971;-81
2021/05/09 07:50:40;;;;;;;3.43;3.13;;;18.80;99.90;;;;;;4996198;28;20446;-83
2021/05/09 07:53:19;;;;;;;3.57;2.27;;;19.10;99.90;;;;;;4995050;28;20505;-82
2021/05/09 07:55:46;;;;;;;3.23;2.37;;;19.10;99.90;;;;;;4997447;28;20481;-81
2021/05/09 07:58:18;;;;;;;4.63;3.10;;;19.20;99.90;;;;;;5004612;28;20457;-82
2021/05/09 08:00:45;;;;;;;3.00;2.80;;;19.40;99.90;;;;;;5014133;28;20453;-81
2021/05/09 08:03:13;;;;;;;2.83;2.53;;;19.40;99.90;;;;;;5002996;28;20479;-81
2021/05/09 08:05:40;;;;;;;2.77;2.57;;;19.60;99.90;;;;;;5001608;28;20520;-82
2021/05/09 08:08:07;;;;;;;3.27;2.50;;;19.80;99.90;;;;;;4998861;28;20456;-82
2021/05/09 08:10:39;;;;;;;3.90;2.30;;;20.00;99.90;;;;;;5010389;28;20910;-81
2021/05/09 08:13:09;;;;;;;2.90;2.40;;;20.20;99.90;;;;;;4994810;28;20465;-82
2021/05/09 08:15:36;;;;;;;2.93;2.70;;;20.30;99.90;;;;;;5024161;28;20439;-81
2021/05/09 08:18:04;;;;;;;4.83;2.60;;;20.30;99.90;;;;;;5013176;28;20464;-81
2021/05/09 08:20:31;;;;;;;2.93;2.43;;;20.30;99.90;;;;;;4996826;28;20450;-81
2021/05/09 08:22:58;;;;;;;4.20;2.80;;;20.50;99.90;;;;;;5015282;28;21311;-79
2021/05/09 08:25:25;;;;;;;2.63;2.40;;;20.60;99.90;;;;;;5024835;28;20435;-79
2021/05/09 08:27:52;;;;;;;3.53;2.87;;;20.90;99.90;;;;;;4994315;28;20483;-78
2021/05/09 08:30:21;;;;;;;4.30;2.70;;;21.20;99.90;;;;;;5005082;28;20433;-80
2021/05/09 08:32:58;;;;;;;2.60;2.40;;;21.30;99.90;;;;;;4969920;28;20654;-79
2021/05/09 08:35:25;;;;;;;4.00;2.70;;;21.30;99.00;;;;;;5000018;28;20453;-78
2021/05/09 08:37:51;;;;;;;2.87;2.30;;;21.30;98.00;;;;;;4993577;28;20808;-82
2021/05/09 08:40:18;;;;;;;4.37;2.90;;;21.30;97.80;;;;;;5005498;28;20841;-79
2021/05/09 08:42:48;;;;;;;5.90;2.80;;;21.40;96.80;;;;;;5000680;28;20442;-78
2021/05/09 08:45:16;;;;;;;3.40;2.13;;;21.40;97.70;;;;;;5014251;28;20866;-82
2021/05/09 08:47:44;;;;;;;2.40;2.20;;;21.50;96.70;;;;;;4997963;28;20493;-79
2021/05/09 08:50:15;;;;;;;8.03;2.40;;;21.50;97.20;;;;;;5003503;28;20445;-82
2021/05/09 08:52:45;;;;;;;2.43;2.23;;;21.60;96.50;;;;;;4995536;28;20465;-78
2021/05/09 08:55:16;;;;;;;2.47;1.93;;;21.70;96.50;;;;;;5013009;28;20790;-78
2021/05/09 08:57:43;;;;;;;2.63;2.30;;;21.70;94.80;;;;;;5012500;28;20489;-82
2021/05/09 09:00:14;;;;;;;7.47;2.50;;;21.70;94.30;;;;;;5013695;28;20448;-81
2021/05/09 09:02:55;;;;;;;5.30;2.57;;;21.60;96.00;;;;;;5010858;28;20429;-79
2021/05/09 09:05:45;;;;;;;3.73;2.17;;;21.70;94.50;;;;;;5011008;28;20453;-80
2021/05/09 09:08:15;;;;;;;2.80;2.30;;;21.80;94.60;;;;;;4997258;28;20469;-81
2021/05/09 09:10:53;;;;;;;2.73;2.17;;;21.80;96.10;;;;;;4993580;28;20446;-82
2021/05/09 09:13:25;;;;;;;2.97;2.60;;;21.80;98.60;;;;;;4993630;28;20979;-80
2021/05/09 09:16:03;;;;;;;2.67;2.40;;;21.80;96.20;;;;;;4976460;28;20458;-81
2021/05/09 09:18:43;;;;;;;2.33;2.23;;;21.90;96.40;;;;;;4993158;28;20973;-81
2021/05/09 09:21:30;;;;;;;3.30;2.30;;;22.00;95.20;;;;;;5021870;28;20482;-81
2021/05/09 09:24:03;;;;;;;4.30;2.50;;;22.20;99.90;;;;;;5027360;28;21148;-81
2021/05/09 09:26:36;;;;;;;2.10;1.90;;;22.40;93.30;;;;;;5016761;28;20569;-81
2021/05/09 09:29:35;;;;;;;4.20;2.10;;;22.40;97.00;;;;;;5001335;28;20513;-79
2021/05/09 09:32:07;;;;;;;2.97;1.80;;;22.40;97.60;;;;;;5013542;28;20445;-82
2021/05/09 09:34:48;;;;;;;2.73;2.53;;;22.40;93.00;;;;;;5011702;28;20859;-78
2021/05/09 09:37:16;;;;;;;3.00;2.20;;;22.40;91.20;;;;;;5004873;28;21025;-81
2021/05/09 09:40:00;;;;;;;2.23;2.03;;;22.60;88.80;;;;;;5006645;28;20465;-81
2021/05/09 09:42:42;;;;;;;2.03;1.80;;;22.50;88.30;;;;;;5006139;28;20446;-78
2021/05/09 09:45:13;;;;;;;4.63;2.90;;;22.80;91.80;;;;;;4992000;28;20454;-81
2021/05/09 09:48:00;;;;;;;2.83;2.40;;;23.10;81.70;;;;;;5008058;28;21141;-81
2021/05/09 09:50:46;;;;;;;2.73;2.47;;;23.30;76.30;;;;;;5004615;28;20442;-80
2021/05/09 09:53:40;;;;;;;3.00;2.00;;;23.50;87.10;;;;;;4983031;28;20474;-81
2021/05/09 09:56:26;;;;;;;2.43;1.90;;;23.50;84.10;;;;;;4992133;28;20503;-81
2021/05/09 09:58:59;;;;;;;2.17;1.70;;;23.70;82.50;;;;;;5005205;28;20476;-79
2021/05/09 10:01:32;;;;;;;5.33;2.13;;;23.90;78.80;;;;;;5008840;28;20486;-78
2021/05/09 10:04:07;;;;;;;2.20;2.00;;;23.90;81.20;;;;;;5004966;28;20470;-80
2021/05/09 10:06:38;;;;;;;2.53;2.33;;;;;;;;;;5007876;28;20456;-80
2021/05/09 10:09:05;;;;;;;3.03;2.13;;;24.30;69.40;;;;;;4999731;28;20470;-77
2021/05/09 10:11:33;;;;;;;1.90;1.70;;;24.40;68.10;;;;;;5004924;28;20444;-81
2021/05/09 10:14:00;;;;;;;4.40;2.10;;;24.40;68.20;;;;;;5018309;28;21085;-78
2021/05/09 10:16:30;;;;;;;4.30;2.37;;;24.60;66.90;;;;;;5003944;28;20468;-75
2021/05/09 10:19:02;;;;;;;2.63;1.90;;;24.50;67.20;;;;;;5004634;28;20475;-78
2021/05/09 10:21:34;;;;;;;2.00;1.90;;;24.40;67.10;;;;;;4994383;28;20815;-81
2021/05/09 10:24:11;;;;;;;4.67;2.17;;;24.30;67.50;;;;;;5007614;28;20597;-76
2021/05/09 10:26:56;;;;;;;4.63;2.40;;;24.20;67.60;;;;;;5000629;28;20866;-78
2021/05/09 10:29:36;;;;;;;5.47;2.30;;;24.00;68.10;;;;;;5019859;28;20507;-79
2021/05/09 10:32:19;;;;;;;2.63;2.43;;;23.80;66.50;;;;;;5003535;28;20520;-78
2021/05/09 10:35:01;;;;;;;3.00;1.60;;;23.70;66.10;;;;;;5010026;28;20463;-80
2021/05/09 10:40:23;;;;;;;2.80;2.20;;;23.70;67.00;;;;;;5008107;28;20982;-80
2021/05/09 10:43:04;;;;;;;3.37;2.27;;;23.60;66.30;;;;;;5007100;28;20773;-77
2021/05/09 10:45:31;;;;;;;3.07;2.37;;;23.60;66.30;;;;;;5027115;28;20439;-78
2021/05/09 10:48:23;;;;;;;2.43;2.10;;;23.60;67.30;;;;;;5010102;28;20426;-79
2021/05/09 10:51:02;;;;;;;2.40;2.20;;;23.50;67.20;;;;;;5022523;28;20444;-79
2021/05/09 10:53:40;;;;;;;2.00;1.90;;;23.60;66.10;;;;;;5026693;28;20474;-76
2021/05/09 10:56:16;;;;;;;3.40;2.03;;;23.60;65.70;;;;;;5018291;28;20856;-80
2021/05/09 10:58:51;;;;;;;2.53;2.00;;;23.70;67.40;;;;;;5006593;28;20469;-78
2021/05/09 11:01:24;;;;;;;3.30;2.27;;;23.70;64.50;;;;;;5008400;28;20445;-78
2021/05/09 11:04:05;;;;;;;3.50;2.40;;;23.60;65.20;;;;;;5025153;28;20472;-80
2021/05/09 11:06:33;;;;;;;3.27;2.17;;;23.60;67.00;;;;;;4986740;28;20456;-80
2021/05/09 11:09:07;;;;;;;3.40;1.80;;;23.70;66.00;;;;;;5016026;28;20477;-80
2021/05/09 11:11:37;;;;;;;2.57;2.10;;;23.80;64.70;;;;;;5008165;28;20431;-80
2021/05/09 11:14:05;;;;;;;3.00;2.13;;;24.00;65.20;;;;;;5007698;28;20466;-79
2021/05/09 11:16:38;;;;;;;2.60;2.37;;;24.20;65.40;;;;;;5009822;28;20452;-80
2021/05/09 11:19:20;;;;;;;3.07;2.20;;;24.40;63.80;;;;;;5000065;28;20483;-79
2021/05/09 11:21:54;;;;;;;1.90;1.80;;;24.60;63.90;;;;;;5023031;28;20468;-79
2021/05/09 11:24:25;;;;;;;2.10;1.90;;;24.90;62.30;;;;;;4984281;28;20981;-78
2021/05/09 11:26:56;;;;;;;4.70;2.20;;;25.00;62.90;;;;;;5000923;28;20522;-81
2021/05/09 11:29:28;;;;;;;2.43;2.27;;;24.90;67.60;;;;;;5025187;28;20563;-79
2021/05/09 11:32:14;;;;;;;2.33;1.90;;;25.00;72.10;;;;;;5022886;28;20507;-79
2021/05/09 11:34:51;;;;;;;3.70;2.50;;;;;;;;;;5001873;28;20548;-78
2021/05/09 11:37:19;;;;;;;2.50;2.30;;;25.20;65.70;;;;;;5008778;28;20555;-81
2021/05/09 11:39:46;;;;;;;3.93;2.30;;;25.40;67.30;;;;;;5013813;28;20453;-78
2021/05/09 11:42:15;;;;;;;3.40;2.20;;;25.40;67.30;;;;;;5008246;28;20903;-81
2021/05/09 11:44:56;;;;;;;2.70;1.93;;;25.50;71.90;;;;;;5004772;28;20473;-79
2021/05/09 11:47:28;;;;;;;2.33;1.93;;;25.50;74.40;;;;;;5009515;28;20984;-80
2021/05/09 11:49:59;;;;;;;4.43;2.77;;;25.50;86.00;;;;;;5011995;28;21004;-80
2021/05/09 11:52:28;;;;;;;2.60;2.40;;;25.50;92.40;;;;;;4995574;28;20443;-79
2021/05/09 11:55:00;;;;;;;3.93;2.10;;;25.60;80.30;;;;;;5008593;28;20519;-79
2021/05/09 11:57:28;;;;;;;3.10;2.40;;;25.60;80.90;;;;;;5026791;28;20810;-80
2021/05/09 12:00:10;;;;;;;2.33;2.10;;;25.60;91.00;;;;;;5008790;28;20474;-81
2021/05/09 12:02:42;;;;;;;3.30;2.50;;;25.60;90.20;;;;;;5011087;28;20536;-82
2021/05/09 12:05:16;;;;;;;3.10;2.83;;;25.60;90.70;;;;;;5026919;28;20455;-81
2021/05/09 12:07:51;;;;;;;3.50;3.20;;;25.80;90.60;;;;;;5024711;28;20559;-79
2021/05/09 12:10:28;;;;;;;5.60;2.37;;;25.80;90.80;;;;;;5008880;28;20475;-80
2021/05/09 12:12:57;;;;;;;4.80;2.00;;;25.90;91.50;;;;;;4983224;28;20473;-80
2021/05/09 12:15:29;;;;;;;3.07;2.30;;;25.90;92.20;;;;;;5025785;28;21015;-78
2021/05/09 12:17:57;;;;;;;2.33;2.13;;;25.90;91.60;;;;;;4988135;28;20472;-80
2021/05/09 12:20:29;;;;;;;3.27;2.17;;;25.90;93.20;;;;;;5004456;28;20446;-77
2021/05/09 12:23:01;;;;;;;4.80;2.57;;;;;;;;;;4999531;28;20473;-81
2021/05/09 12:25:28;;;;;;;2.33;2.13;;;;;;;;;;4987438;28;20449;-80
2021/05/09 12:27:55;;;;;;;3.30;2.67;;;;;;;;;;5005375;28;20549;-78
2021/05/09 12:30:22;;;;;;;2.67;2.03;;;;;;;;;;5012448;28;21015;-80
2021/05/09 12:32:49;;;;;;;2.73;2.43;;;;;;;;;;5003787;28;20508;-79
2021/05/09 12:35:20;;;;;;;2.73;2.33;;;;;;;;;;5012471;28;20443;-76
2021/05/09 12:37:47;;;;;;;4.53;2.67;;;;;;;;;;4996173;28;20465;-78
2021/05/09 12:40:23;;;;;;;3.93;2.33;;;;;;;;;;5028817;28;20417;-75
2021/05/09 12:43:02;;;;;;;4.17;2.13;;;26.30;52.40;;;;;;5003443;28;20460;-76
2021/05/09 12:45:31;;;;;;;3.30;2.20;;;26.20;54.00;;;;;;5012010;28;20429;-77
2021/05/09 12:48:27;;;;;;;5.20;2.70;;;26.20;54.80;;;;;;5003009;28;20468;-76
2021/05/09 12:50:58;;;;;;;5.30;2.30;;;26.20;54.70;;;;;;5001336;28;20450;-77
2021/05/09 12:53:49;;;;;;;2.90;2.70;;;26.30;52.40;;;;;;5021055;28;20475;-79
2021/05/09 12:56:24;;;;;;;2.57;2.37;;;26.30;52.20;;;;;;5024567;28;20462;-78
2021/05/09 12:59:19;;;;;;;2.40;2.20;;;26.40;55.30;;;;;;4999863;28;20488;-77
2021/05/09 13:02:07;;;;;;;2.57;2.33;;;26.50;52.20;;;;;;5010748;28;20515;-79
2021/05/09 13:04:35;;;;;;;4.57;2.60;;;26.50;52.60;;;;;;5009896;28;20468;-78
2021/05/09 13:07:04;;;;;;;2.90;2.60;;;26.60;53.40;;;;;;5010586;28;20449;-78
2021/05/09 13:09:32;;;;;;;4.40;3.07;;;26.60;51.90;;;;;;5010104;28;20445;-80
2021/05/09 13:12:01;;;;;;;2.50;2.30;;;26.60;51.60;;;;;;5020802;28;20437;-79